sensor_id;sensor_type;location;lat;lon;timestamp;pressure;altitude;pressure_sealevel;temperature;humidity
58373;BME280;44177;43.356;27.672;2023-12-04T00:01:48;98701.72;;;1.05;100.00
58373;BME280;44177;43.356;27.672;2023-12-04T00:04:14;98685.09;;;0.82;100.00
58373;BME280;44177;43.356;27.672;2023-12-04T00:06:43;98699.06;;;0.74;100.00
58373;BME280;44177;43.356;27.672;2023-12-04T00:09:08;98696.91;;;0.86;100.00
58373;BME280;44177;43.356;27.672;2023-12-04T00:11:34;98712.50;;;0.79;100.00
58373;BME280;44177;43.356;27.672;2023-12-04T00:13:59;98726.47;;;0.71;100.00
58373;BME280;44177;43.356;27.672;2023-12-04T00:16:26;98743.66;;;0.75;100.00
58373;BME280;44177;43.356;27.672;2023-12-04T00:18:51;98750.09;;;0.79;100.00
58373;BME280;44177;43.356;27.672;2023-12-04T00:21:17;98757.63;;;0.82;100.00
58373;BME280;44177;43.356;27.672;2023-12-04T00:23:43;98756.00;;;0.76;100.00
58373;BME280;44177;43.356;27.672;2023-12-04T00:26:08;98764.06;;;0.71;100.00
58373;BME280;44177;43.356;27.672;2023-12-04T00:28:37;98760.31;;;0.72;100.00
58373;BME280;44177;43.356;27.672;2023-12-04T00:31:03;98739.88;;;0.76;100.00
58373;BME280;44177;43.356;27.672;2023-12-04T00:33:28;98783.69;;;0.87;100.00
58373;BME280;44177;43.356;27.672;2023-12-04T00:35:54;98744.97;;;0.52;100.00
58373;BME280;44177;43.356;27.672;2023-12-04T00:38:19;98762.16;;;0.66;100.00
58373;BME280;44177;43.356;27.672;2023-12-04T00:40:45;98790.41;;;0.74;100.00
58373;BME280;44177;43.356;27.672;2023-12-04T00:43:10;98786.09;;;0.78;100.00
58373;BME280;44177;43.356;27.672;2023-12-04T00:45:36;98786.63;;;0.75;100.00
58373;BME280;44177;43.356;27.672;2023-12-04T00:48:02;98779.38;;;0.81;100.00
58373;BME280;44177;43.356;27.672;2023-12-04T00:50:28;98785.56;;;0.86;100.00
58373;BME280;44177;43.356;27.672;2023-12-04T00:52:53;98788.22;;;0.71;100.00
58373;BME280;44177;43.356;27.672;2023-12-04T00:55:19;98769.41;;;0.60;100.00
58373;BME280;44177;43.356;27.672;2023-12-04T00:57:45;98783.13;;;0.69;100.00
58373;BME280;44177;43.356;27.672;2023-12-04T01:00:11;98762.47;;;0.75;100.00
58373;BME280;44177;43.356;27.672;2023-12-04T01:02:37;98751.97;;;0.63;100.00
58373;BME280;44177;43.356;27.672;2023-12-04T01:05:03;98768.91;;;0.74;100.00
58373;BME280;44177;43.356;27.672;2023-12-04T01:07:28;98785.00;;;0.63;100.00
58373;BME280;44177;43.356;27.672;2023-12-04T01:09:54;98780.69;;;0.57;100.00
58373;BME280;44177;43.356;27.672;2023-12-04T01:12:20;98780.94;;;0.51;100.00
58373;BME280;44177;43.356;27.672;2023-12-04T01:14:46;98751.91;;;0.32;100.00
58373;BME280;44177;43.356;27.672;2023-12-04T01:17:12;98787.09;;;0.46;100.00
58373;BME280;44177;43.356;27.672;2023-12-04T01:19:37;98757.28;;;0.22;100.00
58373;BME280;44177;43.356;27.672;2023-12-04T01:22:03;98766.41;;;0.31;100.00
58373;BME280;44177;43.356;27.672;2023-12-04T01:24:29;98765.31;;;0.32;100.00
58373;BME280;44177;43.356;27.672;2023-12-04T01:26:54;98779.59;;;0.43;100.00
58373;BME280;44177;43.356;27.672;2023-12-04T01:29:20;98777.44;;;0.40;100.00
58373;BME280;44177;43.356;27.672;2023-12-04T01:31:45;98801.34;;;0.52;100.00
58373;BME280;44177;43.356;27.672;2023-12-04T01:34:11;98809.41;;;0.46;100.00
58373;BME280;44177;43.356;27.672;2023-12-04T01:36:40;98812.00;;;0.26;100.00
58373;BME280;44177;43.356;27.672;2023-12-04T01:39:06;98807.94;;;0.13;100.00
58373;BME280;44177;43.356;27.672;2023-12-04T01:41:32;98803.19;;;0.30;100.00
58373;BME280;44177;43.356;27.672;2023-12-04T01:43:57;98807.72;;;0.25;100.00
58373;BME280;44177;43.356;27.672;2023-12-04T01:46:23;98798.84;;;0.19;100.00
58373;BME280;44177;43.356;27.672;2023-12-04T01:48:48;98798.81;;;0.14;100.00
58373;BME280;44177;43.356;27.672;2023-12-04T01:51:16;98804.16;;;0.04;100.00
58373;BME280;44177;43.356;27.672;2023-12-04T01:53:43;98809.00;;;0.07;100.00
58373;BME280;44177;43.356;27.672;2023-12-04T01:56:09;98768.13;;;-0.21;100.00
58373;BME280;44177;43.356;27.672;2023-12-04T01:58:35;98817.31;;;0.05;100.00
58373;BME280;44177;43.356;27.672;2023-12-04T02:01:01;98817.59;;;0.04;100.00
58373;BME280;44177;43.356;27.672;2023-12-04T02:03:27;98790.09;;;-0.19;100.00
58373;BME280;44177;43.356;27.672;2023-12-04T02:05:53;98821.28;;;-0.03;100.00
58373;BME280;44177;43.356;27.672;2023-12-04T02:08:20;98820.25;;;0.04;100.00
58373;BME280;44177;43.356;27.672;2023-12-04T02:10:46;98822.63;;;-0.05;100.00
58373;BME280;44177;43.356;27.672;2023-12-04T02:13:11;98819.44;;;-0.02;100.00
58373;BME280;44177;43.356;27.672;2023-12-04T02:15:37;98821.53;;;-0.09;100.00
58373;BME280;44177;43.356;27.672;2023-12-04T02:18:03;98795.66;;;-0.36;100.00
58373;BME280;44177;43.356;27.672;2023-12-04T02:20:33;98822.34;;;-0.09;100.00
58373;BME280;44177;43.356;27.672;2023-12-04T02:23:00;98807.56;;;-0.11;100.00
58373;BME280;44177;43.356;27.672;2023-12-04T02:25:26;98804.59;;;-0.15;100.00
58373;BME280;44177;43.356;27.672;2023-12-04T02:27:52;98823.94;;;-0.08;100.00
58373;BME280;44177;43.356;27.672;2023-12-04T02:30:22;98772.22;;;-0.51;100.00
58373;BME280;44177;43.356;27.672;2023-12-04T02:32:49;98845.59;;;-0.25;100.00
58373;BME280;44177;43.356;27.672;2023-12-04T02:35:20;98859.03;;;-0.14;100.00
58373;BME280;44177;43.356;27.672;2023-12-04T02:37:47;98868.41;;;-0.17;100.00
58373;BME280;44177;43.356;27.672;2023-12-04T02:40:13;98867.91;;;-0.14;100.00
58373;BME280;44177;43.356;27.672;2023-12-04T02:42:39;98868.72;;;-0.13;100.00
58373;BME280;44177;43.356;27.672;2023-12-04T02:45:05;98892.63;;;-0.12;100.00
58373;BME280;44177;43.356;27.672;2023-12-04T02:47:31;98896.94;;;-0.06;100.00
58373;BME280;44177;43.356;27.672;2023-12-04T02:49:56;98895.31;;;-0.07;100.00
58373;BME280;44177;43.356;27.672;2023-12-04T02:52:22;98903.91;;;-0.05;100.00
58373;BME280;44177;43.356;27.672;2023-12-04T02:54:47;98910.38;;;-0.01;100.00
58373;BME280;44177;43.356;27.672;2023-12-04T02:57:13;98894.75;;;-0.09;100.00
58373;BME280;44177;43.356;27.672;2023-12-04T02:59:38;98907.19;;;0.08;100.00
58373;BME280;44177;43.356;27.672;2023-12-04T03:02:04;98911.22;;;0.10;100.00
58373;BME280;44177;43.356;27.672;2023-12-04T03:04:30;98906.16;;;0.14;100.00
58373;BME280;44177;43.356;27.672;2023-12-04T03:06:56;98917.63;;;0.04;100.00
58373;BME280;44177;43.356;27.672;2023-12-04T03:09:22;98915.50;;;0.06;100.00
58373;BME280;44177;43.356;27.672;2023-12-04T03:11:47;98924.97;;;0.19;100.00
58373;BME280;44177;43.356;27.672;2023-12-04T03:14:13;98908.03;;;0.13;100.00
58373;BME280;44177;43.356;27.672;2023-12-04T03:16:39;98898.59;;;0.06;100.00
58373;BME280;44177;43.356;27.672;2023-12-04T03:19:05;98906.16;;;0.14;100.00
58373;BME280;44177;43.356;27.672;2023-12-04T03:21:31;98911.50;;;0.14;100.00
58373;BME280;44177;43.356;27.672;2023-12-04T03:23:56;98905.94;;;0.21;100.00
58373;BME280;44177;43.356;27.672;2023-12-04T03:26:22;98904.66;;;0.34;100.00
58373;BME280;44177;43.356;27.672;2023-12-04T03:28:47;98916.44;;;0.33;100.00
58373;BME280;44177;43.356;27.672;2023-12-04T03:31:13;98917.53;;;0.37;100.00
58373;BME280;44177;43.356;27.672;2023-12-04T03:33:38;98927.19;;;0.38;100.00
58373;BME280;44177;43.356;27.672;2023-12-04T03:36:04;98923.44;;;0.39;100.00
58373;BME280;44177;43.356;27.672;2023-12-04T03:38:30;98925.34;;;0.38;100.00
58373;BME280;44177;43.356;27.672;2023-12-04T03:40:55;98908.91;;;0.29;100.00
58373;BME280;44177;43.356;27.672;2023-12-04T03:43:21;98912.72;;;0.39;100.00
58373;BME280;44177;43.356;27.672;2023-12-04T03:45:47;98919.16;;;0.38;100.00
58373;BME280;44177;43.356;27.672;2023-12-04T03:48:12;98927.97;;;0.28;100.00
58373;BME280;44177;43.356;27.672;2023-12-04T03:50:38;98938.41;;;0.24;100.00
58373;BME280;44177;43.356;27.672;2023-12-04T03:53:03;98952.13;;;0.33;100.00
58373;BME280;44177;43.356;27.672;2023-12-04T03:55:29;98952.97;;;0.34;100.00
58373;BME280;44177;43.356;27.672;2023-12-04T03:57:56;98962.63;;;0.35;100.00
58373;BME280;44177;43.356;27.672;2023-12-04T04:00:22;98957.28;;;0.35;100.00
58373;BME280;44177;43.356;27.672;2023-12-04T04:02:48;98966.91;;;0.36;100.00
58373;BME280;44177;43.356;27.672;2023-12-04T04:05:14;98972.00;;;0.32;100.00
58373;BME280;44177;43.356;27.672;2023-12-04T04:07:40;98974.53;;;0.49;100.00
58373;BME280;44177;43.356;27.672;2023-12-04T04:10:06;98964.22;;;0.36;100.00
58373;BME280;44177;43.356;27.672;2023-12-04T04:12:32;98968.31;;;0.43;100.00
58373;BME280;44177;43.356;27.672;2023-12-04T04:14:58;98967.31;;;0.55;100.00
58373;BME280;44177;43.356;27.672;2023-12-04T04:17:24;98972.13;;;0.53;100.00
58373;BME280;44177;43.356;27.672;2023-12-04T04:19:53;98978.81;;;0.50;100.00
58373;BME280;44177;43.356;27.672;2023-12-04T04:22:22;98975.88;;;0.52;100.00
58373;BME280;44177;43.356;27.672;2023-12-04T04:24:48;98976.16;;;0.55;100.00
58373;BME280;44177;43.356;27.672;2023-12-04T04:27:14;98975.09;;;0.61;100.00
58373;BME280;44177;43.356;27.672;2023-12-04T04:29:40;98963.78;;;0.54;100.00
58373;BME280;44177;43.356;27.672;2023-12-04T04:32:06;98952.19;;;0.38;100.00
58373;BME280;44177;43.356;27.672;2023-12-04T04:34:31;98971.78;;;0.44;100.00
58373;BME280;44177;43.356;27.672;2023-12-04T04:36:57;98971.28;;;0.47;100.00
58373;BME280;44177;43.356;27.672;2023-12-04T04:39:23;98978.84;;;0.60;100.00
58373;BME280;44177;43.356;27.672;2023-12-04T04:41:48;98980.97;;;0.53;100.00
58373;BME280;44177;43.356;27.672;2023-12-04T04:44:14;98979.63;;;0.56;100.00
58373;BME280;44177;43.356;27.672;2023-12-04T04:46:39;98980.47;;;0.61;100.00
58373;BME280;44177;43.356;27.672;2023-12-04T04:49:05;98964.34;;;0.51;100.00
58373;BME280;44177;43.356;27.672;2023-12-04T04:51:33;98987.44;;;0.57;100.00
58373;BME280;44177;43.356;27.672;2023-12-04T04:54:00;98988.53;;;0.61;100.00
58373;BME280;44177;43.356;27.672;2023-12-04T04:56:26;98987.75;;;0.66;100.00
58373;BME280;44177;43.356;27.672;2023-12-04T04:58:51;98982.59;;;0.59;100.00
58373;BME280;44177;43.356;27.672;2023-12-04T05:01:17;98983.22;;;0.67;100.00
58373;BME280;44177;43.356;27.672;2023-12-04T05:03:42;98992.31;;;0.66;100.00
58373;BME280;44177;43.356;27.672;2023-12-04T05:06:08;98995.78;;;0.61;100.00
58373;BME280;44177;43.356;27.672;2023-12-04T05:08:34;99005.72;;;0.60;100.00
58373;BME280;44177;43.356;27.672;2023-12-04T05:10:59;98994.19;;;0.65;100.00
58373;BME280;44177;43.356;27.672;2023-12-04T05:13:25;98991.78;;;0.63;100.00
58373;BME280;44177;43.356;27.672;2023-12-04T05:15:50;98996.59;;;0.61;100.00
58373;BME280;44177;43.356;27.672;2023-12-04T05:18:16;99002.50;;;0.63;100.00
58373;BME280;44177;43.356;27.672;2023-12-04T05:20:41;99007.31;;;0.61;100.00
58373;BME280;44177;43.356;27.672;2023-12-04T05:23:07;99003.88;;;0.66;100.00
58373;BME280;44177;43.356;27.672;2023-12-04T05:25:32;99010.63;;;0.74;100.00
58373;BME280;44177;43.356;27.672;2023-12-04T05:27:58;99000.94;;;0.73;100.00
58373;BME280;44177;43.356;27.672;2023-12-04T05:30:23;99002.06;;;0.82;100.00
58373;BME280;44177;43.356;27.672;2023-12-04T05:32:49;99015.50;;;0.87;100.00
58373;BME280;44177;43.356;27.672;2023-12-04T05:35:15;99019.50;;;0.79;100.00
58373;BME280;44177;43.356;27.672;2023-12-04T05:37:41;99006.28;;;0.68;100.00
58373;BME280;44177;43.356;27.672;2023-12-04T05:40:08;99018.13;;;0.72;100.00
58373;BME280;44177;43.356;27.672;2023-12-04T05:42:33;99015.72;;;0.70;100.00
58373;BME280;44177;43.356;27.672;2023-12-04T05:44:59;99011.63;;;0.62;100.00
58373;BME280;44177;43.356;27.672;2023-12-04T05:47:26;99013.28;;;0.69;100.00
58373;BME280;44177;43.356;27.672;2023-12-04T05:49:51;99011.91;;;0.61;100.00
58373;BME280;44177;43.356;27.672;2023-12-04T05:52:17;99022.69;;;0.71;100.00
58373;BME280;44177;43.356;27.672;2023-12-04T05:54:43;99017.03;;;0.68;100.00
58373;BME280;44177;43.356;27.672;2023-12-04T05:57:08;99010.06;;;0.67;100.00
58373;BME280;44177;43.356;27.672;2023-12-04T05:59:34;99030.78;;;0.76;100.00
58373;BME280;44177;43.356;27.672;2023-12-04T06:02:00;99036.94;;;0.72;100.00
58373;BME280;44177;43.356;27.672;2023-12-04T06:04:26;99040.69;;;0.71;100.00
58373;BME280;44177;43.356;27.672;2023-12-04T06:06:51;99039.56;;;0.61;100.00
58373;BME280;44177;43.356;27.672;2023-12-04T06:09:17;99029.34;;;0.58;100.00
58373;BME280;44177;43.356;27.672;2023-12-04T06:11:43;99029.31;;;0.53;100.00
58373;BME280;44177;43.356;27.672;2023-12-04T06:14:08;99012.69;;;0.56;100.00
58373;BME280;44177;43.356;27.672;2023-12-04T06:16:34;99019.63;;;0.52;100.00
58373;BME280;44177;43.356;27.672;2023-12-04T06:18:59;99028.53;;;0.58;100.00
58373;BME280;44177;43.356;27.672;2023-12-04T06:21:25;99022.94;;;0.65;100.00
58373;BME280;44177;43.356;27.672;2023-12-04T06:23:50;99028.00;;;0.61;100.00
58373;BME280;44177;43.356;27.672;2023-12-04T06:26:16;99025.91;;;0.68;100.00
58373;BME280;44177;43.356;27.672;2023-12-04T06:28:43;99028.56;;;0.63;100.00
58373;BME280;44177;43.356;27.672;2023-12-04T06:31:09;99031.00;;;0.70;100.00
58373;BME280;44177;43.356;27.672;2023-12-04T06:33:35;99042.81;;;0.69;100.00
58373;BME280;44177;43.356;27.672;2023-12-04T06:36:02;99047.69;;;0.72;100.00
58373;BME280;44177;43.356;27.672;2023-12-04T06:38:32;99049.22;;;0.57;100.00
58373;BME280;44177;43.356;27.672;2023-12-04T06:41:00;99057.91;;;0.75;100.00
58373;BME280;44177;43.356;27.672;2023-12-04T06:43:26;99061.13;;;0.77;100.00
58373;BME280;44177;43.356;27.672;2023-12-04T06:45:53;99050.06;;;0.68;100.00
58373;BME280;44177;43.356;27.672;2023-12-04T06:48:22;99072.16;;;0.81;100.00
58373;BME280;44177;43.356;27.672;2023-12-04T06:50:48;99075.38;;;0.77;100.00
58373;BME280;44177;43.356;27.672;2023-12-04T06:53:14;99069.16;;;0.72;100.00
58373;BME280;44177;43.356;27.672;2023-12-04T06:55:39;99074.03;;;0.80;100.00
58373;BME280;44177;43.356;27.672;2023-12-04T06:58:05;99078.09;;;0.83;100.00
58373;BME280;44177;43.356;27.672;2023-12-04T07:00:30;99075.13;;;0.84;100.00
58373;BME280;44177;43.356;27.672;2023-12-04T07:02:56;99074.03;;;0.80;100.00
58373;BME280;44177;43.356;27.672;2023-12-04T07:05:21;99079.72;;;0.84;100.00
58373;BME280;44177;43.356;27.672;2023-12-04T07:07:47;99052.78;;;0.73;100.00
58373;BME280;44177;43.356;27.672;2023-12-04T07:10:13;99091.03;;;0.96;100.00
58373;BME280;44177;43.356;27.672;2023-12-04T07:12:44;99090.22;;;0.90;100.00
58373;BME280;44177;43.356;27.672;2023-12-04T07:15:11;99106.38;;;0.96;100.00
58373;BME280;44177;43.356;27.672;2023-12-04T07:17:37;99095.63;;;0.96;100.00
58373;BME280;44177;43.356;27.672;2023-12-04T07:20:03;99092.84;;;0.80;100.00
58373;BME280;44177;43.356;27.672;2023-12-04T07:22:32;99097.69;;;0.83;100.00
58373;BME280;44177;43.356;27.672;2023-12-04T07:24:58;99089.88;;;0.76;100.00
58373;BME280;44177;43.356;27.672;2023-12-04T07:27:24;99087.50;;;0.85;100.00
58373;BME280;44177;43.356;27.672;2023-12-04T07:29:49;99092.94;;;0.96;100.00
58373;BME280;44177;43.356;27.672;2023-12-04T07:32:15;99091.31;;;0.94;100.00
58373;BME280;44177;43.356;27.672;2023-12-04T07:34:40;99063.38;;;0.96;100.00
58373;BME280;44177;43.356;27.672;2023-12-04T07:37:06;99091.16;;;1.17;100.00
58373;BME280;44177;43.356;27.672;2023-12-04T07:39:32;99070.94;;;1.09;100.00
58373;BME280;44177;43.356;27.672;2023-12-04T07:41:58;99097.06;;;1.19;100.00
58373;BME280;44177;43.356;27.672;2023-12-04T07:44:23;99111.66;;;1.38;100.00
58373;BME280;44177;43.356;27.672;2023-12-04T07:46:49;99096.09;;;1.40;100.00
58373;BME280;44177;43.356;27.672;2023-12-04T07:49:14;99058.06;;;1.11;100.00
58373;BME280;44177;43.356;27.672;2023-12-04T07:51:40;99109.25;;;1.47;100.00
58373;BME280;44177;43.356;27.672;2023-12-04T07:54:05;99105.53;;;1.53;100.00
58373;BME280;44177;43.356;27.672;2023-12-04T07:56:31;99110.94;;;1.64;100.00
58373;BME280;44177;43.356;27.672;2023-12-04T07:58:56;99112.28;;;1.56;100.00
58373;BME280;44177;43.356;27.672;2023-12-04T08:01:23;99113.09;;;1.67;99.78
58373;BME280;44177;43.356;27.672;2023-12-04T08:03:49;99112.56;;;1.70;99.81
58373;BME280;44177;43.356;27.672;2023-12-04T08:06:15;99105.88;;;1.72;99.58
58373;BME280;44177;43.356;27.672;2023-12-04T08:08:43;99113.94;;;1.78;100.00
58373;BME280;44177;43.356;27.672;2023-12-04T08:11:10;99113.66;;;1.79;99.41
58373;BME280;44177;43.356;27.672;2023-12-04T08:13:35;99114.72;;;1.78;98.73
58373;BME280;44177;43.356;27.672;2023-12-04T08:16:01;99113.09;;;1.62;99.13
58373;BME280;44177;43.356;27.672;2023-12-04T08:18:28;99115.81;;;1.77;99.13
58373;BME280;44177;43.356;27.672;2023-12-04T08:20:53;99120.97;;;1.89;99.30
58373;BME280;44177;43.356;27.672;2023-12-04T08:23:19;99114.75;;;1.83;99.03
58373;BME280;44177;43.356;27.672;2023-12-04T08:25:45;99107.22;;;1.80;98.26
58373;BME280;44177;43.356;27.672;2023-12-04T08:28:11;99120.16;;;2.04;98.88
58373;BME280;44177;43.356;27.672;2023-12-04T08:30:36;99111.03;;;2.00;98.39
58373;BME280;44177;43.356;27.672;2023-12-04T08:33:02;99119.09;;;2.00;97.69
58373;BME280;44177;43.356;27.672;2023-12-04T08:35:28;99126.63;;;2.13;97.44
58373;BME280;44177;43.356;27.672;2023-12-04T08:37:53;99117.19;;;2.00;97.07
58373;BME280;44177;43.356;27.672;2023-12-04T08:40:19;99128.78;;;2.01;96.54
58373;BME280;44177;43.356;27.672;2023-12-04T08:42:44;99130.06;;;1.83;96.79
58373;BME280;44177;43.356;27.672;2023-12-04T08:45:10;99127.66;;;1.76;96.86
58373;BME280;44177;43.356;27.672;2023-12-04T08:47:36;99122.28;;;1.76;97.25
58373;BME280;44177;43.356;27.672;2023-12-04T08:50:02;99129.78;;;1.74;97.98
58373;BME280;44177;43.356;27.672;2023-12-04T08:52:27;99131.94;;;1.72;97.98
58373;BME280;44177;43.356;27.672;2023-12-04T08:54:53;99133.78;;;1.66;97.55
58373;BME280;44177;43.356;27.672;2023-12-04T08:57:19;99124.66;;;1.57;97.29
58373;BME280;44177;43.356;27.672;2023-12-04T08:59:45;99127.84;;;1.59;98.11
58373;BME280;44177;43.356;27.672;2023-12-04T09:02:11;99124.38;;;1.53;98.27
58373;BME280;44177;43.356;27.672;2023-12-04T09:04:36;99129.75;;;1.58;99.13
58373;BME280;44177;43.356;27.672;2023-12-04T09:07:02;99134.53;;;1.46;99.06
58373;BME280;44177;43.356;27.672;2023-12-04T09:09:28;99114.06;;;1.30;99.42
58373;BME280;44177;43.356;27.672;2023-12-04T09:11:54;99144.22;;;1.42;99.27
58373;BME280;44177;43.356;27.672;2023-12-04T09:14:19;99135.94;;;1.59;98.84
58373;BME280;44177;43.356;27.672;2023-12-04T09:16:45;99135.69;;;1.61;98.11
58373;BME280;44177;43.356;27.672;2023-12-04T09:19:10;99120.31;;;1.51;98.33
58373;BME280;44177;43.356;27.672;2023-12-04T09:21:36;99117.09;;;1.49;99.20
58373;BME280;44177;43.356;27.672;2023-12-04T09:24:01;99140.56;;;1.74;99.00
58373;BME280;44177;43.356;27.672;2023-12-04T09:26:27;99133.03;;;1.76;98.81
58373;BME280;44177;43.356;27.672;2023-12-04T09:28:53;99147.00;;;1.78;98.33
58373;BME280;44177;43.356;27.672;2023-12-04T09:31:18;99139.41;;;1.49;98.29
58373;BME280;44177;43.356;27.672;2023-12-04T09:33:45;99139.59;;;1.32;99.42
58373;BME280;44177;43.356;27.672;2023-12-04T09:36:10;99127.59;;;1.55;99.88
58373;BME280;44177;43.356;27.672;2023-12-04T09:38:36;99135.09;;;1.48;99.65
58373;BME280;44177;43.356;27.672;2023-12-04T09:41:02;99113.84;;;1.41;99.67
58373;BME280;44177;43.356;27.672;2023-12-04T09:43:31;99072.06;;;1.13;99.68
58373;BME280;44177;43.356;27.672;2023-12-04T09:45:57;99123.03;;;1.56;100.00
58373;BME280;44177;43.356;27.672;2023-12-04T09:48:27;99114.69;;;1.57;100.00
58373;BME280;44177;43.356;27.672;2023-12-04T09:50:53;99101.72;;;1.39;99.71
58373;BME280;44177;43.356;27.672;2023-12-04T09:53:19;99114.41;;;1.54;100.00
58373;BME280;44177;43.356;27.672;2023-12-04T09:55:49;99107.69;;;1.56;99.78
58373;BME280;44177;43.356;27.672;2023-12-04T09:58:15;99104.78;;;1.73;100.00
58373;BME280;44177;43.356;27.672;2023-12-04T10:00:44;99110.41;;;1.62;99.36
58373;BME280;44177;43.356;27.672;2023-12-04T10:03:09;99105.56;;;1.64;99.30
58373;BME280;44177;43.356;27.672;2023-12-04T10:05:35;99103.13;;;1.62;98.98
58373;BME280;44177;43.356;27.672;2023-12-04T10:08:01;99096.94;;;1.56;99.66
58373;BME280;44177;43.356;27.672;2023-12-04T10:10:26;99118.47;;;1.67;99.46
58373;BME280;44177;43.356;27.672;2023-12-04T10:12:52;99109.34;;;1.78;98.45
58373;BME280;44177;43.356;27.672;2023-12-04T10:15:17;99116.09;;;1.86;98.38
58373;BME280;44177;43.356;27.672;2023-12-04T10:17:43;99120.13;;;1.88;99.51
58373;BME280;44177;43.356;27.672;2023-12-04T10:20:14;99107.25;;;1.85;99.37
58373;BME280;44177;43.356;27.672;2023-12-04T10:22:56;99109.94;;;1.85;98.76
58373;BME280;44177;43.356;27.672;2023-12-04T10:25:27;99106.16;;;1.97;98.21
58373;BME280;44177;43.356;27.672;2023-12-04T10:28:12;99098.09;;;2.07;98.11
58373;BME280;44177;43.356;27.672;2023-12-04T10:30:39;99095.16;;;2.03;97.39
58373;BME280;44177;43.356;27.672;2023-12-04T10:33:06;99103.47;;;2.02;95.74
58373;BME280;44177;43.356;27.672;2023-12-04T10:35:33;99104.00;;;1.94;96.03
58373;BME280;44177;43.356;27.672;2023-12-04T10:38:02;99102.91;;;1.89;96.77
58373;BME280;44177;43.356;27.672;2023-12-04T10:40:30;99083.53;;;1.82;97.54
58373;BME280;44177;43.356;27.672;2023-12-04T10:43:23;99097.84;;;2.03;97.11
58373;BME280;44177;43.356;27.672;2023-12-04T10:45:50;99097.56;;;2.15;96.93
58373;BME280;44177;43.356;27.672;2023-12-04T10:48:17;99094.88;;;2.20;96.51
58373;BME280;44177;43.356;27.672;2023-12-04T10:50:45;99096.50;;;2.32;96.20
58373;BME280;44177;43.356;27.672;2023-12-04T10:53:13;99095.94;;;2.45;96.77
58373;BME280;44177;43.356;27.672;2023-12-04T10:55:40;99097.03;;;2.39;95.28
58373;BME280;44177;43.356;27.672;2023-12-04T10:58:11;99087.31;;;2.53;95.00
58373;BME280;44177;43.356;27.672;2023-12-04T11:00:47;99064.19;;;2.37;93.43
58373;BME280;44177;43.356;27.672;2023-12-04T11:03:21;99094.59;;;2.58;92.48
58373;BME280;44177;43.356;27.672;2023-12-04T11:05:53;99085.19;;;2.56;92.10
58373;BME280;44177;43.356;27.672;2023-12-04T11:08:20;99064.41;;;2.56;92.60
58373;BME280;44177;43.356;27.672;2023-12-04T11:11:04;99085.69;;;2.63;92.24
58373;BME280;44177;43.356;27.672;2023-12-04T11:13:32;99086.75;;;2.67;91.79
58373;BME280;44177;43.356;27.672;2023-12-04T11:16:07;99087.31;;;2.53;92.08
58373;BME280;44177;43.356;27.672;2023-12-04T11:18:36;99080.84;;;2.60;92.66
58373;BME280;44177;43.356;27.672;2023-12-04T11:21:08;99034.03;;;2.30;93.29
58373;BME280;44177;43.356;27.672;2023-12-04T11:23:34;99091.09;;;2.52;93.47
58373;BME280;44177;43.356;27.672;2023-12-04T11:26:01;99091.34;;;2.46;92.87
58373;BME280;44177;43.356;27.672;2023-12-04T11:28:29;99101.34;;;2.35;93.51
58373;BME280;44177;43.356;27.672;2023-12-04T11:30:55;99098.09;;;2.33;93.96
58373;BME280;44177;43.356;27.672;2023-12-04T11:33:21;99096.25;;;2.28;93.72
58373;BME280;44177;43.356;27.672;2023-12-04T11:35:49;99056.13;;;2.06;94.21
58373;BME280;44177;43.356;27.672;2023-12-04T11:38:17;99050.22;;;2.09;95.24
58373;BME280;44177;43.356;27.672;2023-12-04T11:40:42;99076.56;;;2.33;93.84
58373;BME280;44177;43.356;27.672;2023-12-04T11:43:27;99090.56;;;2.45;92.62
58373;BME280;44177;43.356;27.672;2023-12-04T11:46:10;99085.19;;;2.56;93.34
58373;BME280;44177;43.356;27.672;2023-12-04T11:48:37;99082.47;;;2.61;92.00
58373;BME280;44177;43.356;27.672;2023-12-04T11:51:05;99075.19;;;2.66;92.05
58373;BME280;44177;43.356;27.672;2023-12-04T11:53:32;99071.91;;;2.80;91.71
58373;BME280;44177;43.356;27.672;2023-12-04T11:55:58;99084.81;;;2.93;92.37
58373;BME280;44177;43.356;27.672;2023-12-04T11:58:23;99087.25;;;2.90;92.91
58373;BME280;44177;43.356;27.672;2023-12-04T12:00:49;99082.91;;;2.99;93.53
58373;BME280;44177;43.356;27.672;2023-12-04T12:03:15;99079.91;;;3.11;91.35
58373;BME280;44177;43.356;27.672;2023-12-04T12:05:40;99070.47;;;3.19;91.61
58373;BME280;44177;43.356;27.672;2023-12-04T12:08:07;99084.19;;;3.22;90.77
58373;BME280;44177;43.356;27.672;2023-12-04T12:10:34;99073.16;;;3.13;89.87
58373;BME280;44177;43.356;27.672;2023-12-04T12:12:59;99075.84;;;3.19;89.49
58373;BME280;44177;43.356;27.672;2023-12-04T12:15:27;99080.41;;;3.23;90.08
58373;BME280;44177;43.356;27.672;2023-12-04T12:17:53;99077.94;;;3.32;90.99
58373;BME280;44177;43.356;27.672;2023-12-04T12:20:19;99077.97;;;3.22;89.35
58373;BME280;44177;43.356;27.672;2023-12-04T12:22:48;99074.94;;;3.39;89.16
58373;BME280;44177;43.356;27.672;2023-12-04T12:25:14;99065.47;;;3.46;88.20
58373;BME280;44177;43.356;27.672;2023-12-04T12:27:40;99079.44;;;3.54;88.45
58373;BME280;44177;43.356;27.672;2023-12-04T12:30:06;99076.94;;;3.68;89.33
58373;BME280;44177;43.356;27.672;2023-12-04T12:32:35;99078.63;;;3.58;88.07
58373;BME280;44177;43.356;27.672;2023-12-04T12:35:02;99088.28;;;3.64;87.88
58373;BME280;44177;43.356;27.672;2023-12-04T12:37:28;99087.00;;;3.57;87.36
58373;BME280;44177;43.356;27.672;2023-12-04T12:39:54;99069.81;;;3.42;87.51
58373;BME280;44177;43.356;27.672;2023-12-04T12:42:27;99075.75;;;3.39;88.99
58373;BME280;44177;43.356;27.672;2023-12-04T12:44:54;99075.97;;;3.48;88.55
58373;BME280;44177;43.356;27.672;2023-12-04T12:47:21;99065.50;;;3.36;89.68
58373;BME280;44177;43.356;27.672;2023-12-04T12:49:47;99081.66;;;3.46;89.35